sensor_id;sensor_type;location;lat;lon;timestamp;temperature;humidity
78461;SHT31;67755;51.986;5.696;2023-05-07T00:01:47;19.3;64.2
78461;SHT31;67755;51.986;5.696;2023-05-07T00:04:17;19.3;64.3
78461;SHT31;67755;51.986;5.696;2023-05-07T00:06:46;19.3;64.3
78461;SHT31;67755;51.986;5.696;2023-05-07T00:09:16;19.3;64.2
78461;SHT31;67755;51.986;5.696;2023-05-07T00:11:46;19.3;64.2
78461;SHT31;67755;51.986;5.696;2023-05-07T00:14:15;19.3;64.2
78461;SHT31;67755;51.986;5.696;2023-05-07T00:16:45;19.3;64.2
78461;SHT31;67755;51.986;5.696;2023-05-07T00:19:14;19.3;64.0
78461;SHT31;67755;51.986;5.696;2023-05-07T00:21:44;19.3;64.0
78461;SHT31;67755;51.986;5.696;2023-05-07T00:24:14;19.3;63.8
78461;SHT31;67755;51.986;5.696;2023-05-07T00:26:43;19.2;63.7
78461;SHT31;67755;51.986;5.696;2023-05-07T00:29:13;19.2;63.5
78461;SHT31;67755;51.986;5.696;2023-05-07T00:31:42;19.2;63.4
78461;SHT31;67755;51.986;5.696;2023-05-07T00:34:12;19.2;63.5
78461;SHT31;67755;51.986;5.696;2023-05-07T00:36:41;19.2;63.4
78461;SHT31;67755;51.986;5.696;2023-05-07T00:39:11;19.2;63.5
78461;SHT31;67755;51.986;5.696;2023-05-07T00:41:45;19.1;63.3
78461;SHT31;67755;51.986;5.696;2023-05-07T00:44:15;19.1;63.1
78461;SHT31;67755;51.986;5.696;2023-05-07T00:46:45;19.1;62.9
78461;SHT31;67755;51.986;5.696;2023-05-07T00:49:18;19.1;62.9
78461;SHT31;67755;51.986;5.696;2023-05-07T00:51:49;19.1;63.0
78461;SHT31;67755;51.986;5.696;2023-05-07T00:54:22;19.1;63.1
78461;SHT31;67755;51.986;5.696;2023-05-07T00:56:53;19.0;63.2
78461;SHT31;67755;51.986;5.696;2023-05-07T00:59:23;19.0;63.3
78461;SHT31;67755;51.986;5.696;2023-05-07T01:01:55;19.0;63.3
78461;SHT31;67755;51.986;5.696;2023-05-07T01:04:26;19.0;63.3
78461;SHT31;67755;51.986;5.696;2023-05-07T01:06:58;19.0;63.2
78461;SHT31;67755;51.986;5.696;2023-05-07T01:09:29;19.0;63.3
78461;SHT31;67755;51.986;5.696;2023-05-07T01:11:59;19.0;63.5
78461;SHT31;67755;51.986;5.696;2023-05-07T01:14:31;18.9;63.5
78461;SHT31;67755;51.986;5.696;2023-05-07T01:17:03;18.9;63.5
78461;SHT31;67755;51.986;5.696;2023-05-07T01:19:34;18.9;63.7
78461;SHT31;67755;51.986;5.696;2023-05-07T01:22:09;18.9;63.8
78461;SHT31;67755;51.986;5.696;2023-05-07T01:24:40;18.9;64.0
78461;SHT31;67755;51.986;5.696;2023-05-07T01:27:09;18.9;64.0
78461;SHT31;67755;51.986;5.696;2023-05-07T01:29:39;18.9;63.9
78461;SHT31;67755;51.986;5.696;2023-05-07T01:32:10;18.9;64.1
78461;SHT31;67755;51.986;5.696;2023-05-07T01:34:40;18.9;64.1
78461;SHT31;67755;51.986;5.696;2023-05-07T01:37:12;18.9;64.3
78461;SHT31;67755;51.986;5.696;2023-05-07T01:39:45;18.8;64.3
78461;SHT31;67755;51.986;5.696;2023-05-07T01:42:15;18.8;64.5
78461;SHT31;67755;51.986;5.696;2023-05-07T01:44:44;18.8;64.5
78461;SHT31;67755;51.986;5.696;2023-05-07T01:47:14;18.8;64.4
78461;SHT31;67755;51.986;5.696;2023-05-07T01:49:45;18.8;64.5
78461;SHT31;67755;51.986;5.696;2023-05-07T01:52:17;18.8;64.3
78461;SHT31;67755;51.986;5.696;2023-05-07T01:54:47;18.8;64.3
78461;SHT31;67755;51.986;5.696;2023-05-07T01:57:17;18.8;64.2
78461;SHT31;67755;51.986;5.696;2023-05-07T01:59:46;18.8;64.2
78461;SHT31;67755;51.986;5.696;2023-05-07T02:02:16;18.8;64.3
78461;SHT31;67755;51.986;5.696;2023-05-07T02:04:45;18.8;64.3
78461;SHT31;67755;51.986;5.696;2023-05-07T02:07:15;18.8;64.4
78461;SHT31;67755;51.986;5.696;2023-05-07T02:09:44;18.8;64.5
78461;SHT31;67755;51.986;5.696;2023-05-07T02:12:14;18.8;64.5
78461;SHT31;67755;51.986;5.696;2023-05-07T02:14:44;18.7;64.6
78461;SHT31;67755;51.986;5.696;2023-05-07T02:17:14;18.7;64.8
78461;SHT31;67755;51.986;5.696;2023-05-07T02:19:43;18.7;64.8
78461;SHT31;67755;51.986;5.696;2023-05-07T02:22:13;18.7;64.8
78461;SHT31;67755;51.986;5.696;2023-05-07T02:24:42;18.7;64.9
78461;SHT31;67755;51.986;5.696;2023-05-07T02:27:12;18.7;64.8
78461;SHT31;67755;51.986;5.696;2023-05-07T02:29:42;18.7;64.8
78461;SHT31;67755;51.986;5.696;2023-05-07T02:32:11;18.7;64.9
78461;SHT31;67755;51.986;5.696;2023-05-07T02:34:41;18.7;64.7
78461;SHT31;67755;51.986;5.696;2023-05-07T02:37:11;18.7;64.8
78461;SHT31;67755;51.986;5.696;2023-05-07T02:39:41;18.7;64.6
78461;SHT31;67755;51.986;5.696;2023-05-07T02:42:10;18.7;64.7
78461;SHT31;67755;51.986;5.696;2023-05-07T02:44:39;18.7;64.8
78461;SHT31;67755;51.986;5.696;2023-05-07T02:47:09;18.7;64.8
78461;SHT31;67755;51.986;5.696;2023-05-07T02:49:40;18.7;64.8
78461;SHT31;67755;51.986;5.696;2023-05-07T02:52:10;18.7;64.8
78461;SHT31;67755;51.986;5.696;2023-05-07T02:54:40;18.7;64.8
78461;SHT31;67755;51.986;5.696;2023-05-07T02:57:09;18.7;64.8
78461;SHT31;67755;51.986;5.696;2023-05-07T02:59:39;18.7;64.8
78461;SHT31;67755;51.986;5.696;2023-05-07T03:02:08;18.7;64.7
78461;SHT31;67755;51.986;5.696;2023-05-07T03:04:39;18.7;64.8
78461;SHT31;67755;51.986;5.696;2023-05-07T03:07:09;18.7;64.6
78461;SHT31;67755;51.986;5.696;2023-05-07T03:09:38;18.7;64.6
78461;SHT31;67755;51.986;5.696;2023-05-07T03:12:08;18.7;64.6
78461;SHT31;67755;51.986;5.696;2023-05-07T03:14:38;18.7;64.6
78461;SHT31;67755;51.986;5.696;2023-05-07T03:17:07;18.7;64.7
78461;SHT31;67755;51.986;5.696;2023-05-07T03:19:37;18.7;64.7
78461;SHT31;67755;51.986;5.696;2023-05-07T03:22:07;18.6;64.6
78461;SHT31;67755;51.986;5.696;2023-05-07T03:24:39;18.6;64.6
78461;SHT31;67755;51.986;5.696;2023-05-07T03:27:08;18.6;64.7
78461;SHT31;67755;51.986;5.696;2023-05-07T03:29:38;18.6;64.7
78461;SHT31;67755;51.986;5.696;2023-05-07T03:32:07;18.6;64.6
78461;SHT31;67755;51.986;5.696;2023-05-07T03:34:37;18.6;64.8
78461;SHT31;67755;51.986;5.696;2023-05-07T03:37:07;18.6;64.8
78461;SHT31;67755;51.986;5.696;2023-05-07T03:39:37;18.6;64.8
78461;SHT31;67755;51.986;5.696;2023-05-07T03:42:06;18.6;64.9
78461;SHT31;67755;51.986;5.696;2023-05-07T03:44:36;18.6;64.8
78461;SHT31;67755;51.986;5.696;2023-05-07T03:47:05;18.5;64.9
78461;SHT31;67755;51.986;5.696;2023-05-07T03:49:36;18.5;65.0
78461;SHT31;67755;51.986;5.696;2023-05-07T03:52:06;18.5;65.1
78461;SHT31;67755;51.986;5.696;2023-05-07T03:54:36;18.5;65.0
78461;SHT31;67755;51.986;5.696;2023-05-07T03:57:06;18.5;65.0
78461;SHT31;67755;51.986;5.696;2023-05-07T03:59:35;18.5;65.1
78461;SHT31;67755;51.986;5.696;2023-05-07T04:02:06;18.5;65.1
78461;SHT31;67755;51.986;5.696;2023-05-07T04:04:35;18.5;65.1
78461;SHT31;67755;51.986;5.696;2023-05-07T04:07:05;18.5;65.2
78461;SHT31;67755;51.986;5.696;2023-05-07T04:09:34;18.5;65.1
78461;SHT31;67755;51.986;5.696;2023-05-07T04:12:04;18.5;65.2
78461;SHT31;67755;51.986;5.696;2023-05-07T04:14:34;18.5;65.3
78461;SHT31;67755;51.986;5.696;2023-05-07T04:17:04;18.5;65.3
78461;SHT31;67755;51.986;5.696;2023-05-07T04:19:35;18.5;65.4
78461;SHT31;67755;51.986;5.696;2023-05-07T04:22:04;18.5;65.4
78461;SHT31;67755;51.986;5.696;2023-05-07T04:24:34;18.5;65.3
78461;SHT31;67755;51.986;5.696;2023-05-07T04:27:03;18.5;65.4
78461;SHT31;67755;51.986;5.696;2023-05-07T04:29:33;18.5;65.3
78461;SHT31;67755;51.986;5.696;2023-05-07T04:32:03;18.5;65.2
78461;SHT31;67755;51.986;5.696;2023-05-07T04:34:33;18.5;65.4
78461;SHT31;67755;51.986;5.696;2023-05-07T04:37:03;18.5;65.5
78461;SHT31;67755;51.986;5.696;2023-05-07T04:39:32;18.5;65.4
78461;SHT31;67755;51.986;5.696;2023-05-07T04:42:02;18.5;65.5
78461;SHT31;67755;51.986;5.696;2023-05-07T04:44:35;18.5;65.5
78461;SHT31;67755;51.986;5.696;2023-05-07T04:47:04;18.5;65.1
78461;SHT31;67755;51.986;5.696;2023-05-07T04:49:34;18.5;65.5
78461;SHT31;67755;51.986;5.696;2023-05-07T04:52:04;18.5;65.6
78461;SHT31;67755;51.986;5.696;2023-05-07T04:54:34;18.5;65.5
78461;SHT31;67755;51.986;5.696;2023-05-07T04:57:05;18.5;65.5
78461;SHT31;67755;51.986;5.696;2023-05-07T04:59:35;18.5;65.8
78461;SHT31;67755;51.986;5.696;2023-05-07T05:02:06;18.5;65.6
78461;SHT31;67755;51.986;5.696;2023-05-07T05:04:36;18.5;65.7
78461;SHT31;67755;51.986;5.696;2023-05-07T05:07:06;18.5;65.8
78461;SHT31;67755;51.986;5.696;2023-05-07T05:09:35;18.5;65.8
78461;SHT31;67755;51.986;5.696;2023-05-07T05:12:05;18.5;65.6
78461;SHT31;67755;51.986;5.696;2023-05-07T05:14:35;18.5;65.7
78461;SHT31;67755;51.986;5.696;2023-05-07T05:17:05;18.5;65.8
78461;SHT31;67755;51.986;5.696;2023-05-07T05:19:34;18.5;65.9
78461;SHT31;67755;51.986;5.696;2023-05-07T05:22:04;18.5;66.0
78461;SHT31;67755;51.986;5.696;2023-05-07T05:24:33;18.5;66.1
78461;SHT31;67755;51.986;5.696;2023-05-07T05:27:03;18.5;66.2
78461;SHT31;67755;51.986;5.696;2023-05-07T05:29:33;18.5;66.3
78461;SHT31;67755;51.986;5.696;2023-05-07T05:32:02;18.5;66.3
78461;SHT31;67755;51.986;5.696;2023-05-07T05:34:32;18.5;66.4
78461;SHT31;67755;51.986;5.696;2023-05-07T05:37:02;18.5;66.5
78461;SHT31;67755;51.986;5.696;2023-05-07T05:39:32;18.5;66.7
78461;SHT31;67755;51.986;5.696;2023-05-07T05:42:02;18.5;66.9
78461;SHT31;67755;51.986;5.696;2023-05-07T05:44:31;18.5;66.7
78461;SHT31;67755;51.986;5.696;2023-05-07T05:47:01;18.5;66.8
78461;SHT31;67755;51.986;5.696;2023-05-07T05:49:32;18.5;67.0
78461;SHT31;67755;51.986;5.696;2023-05-07T05:52:01;18.5;67.3
78461;SHT31;67755;51.986;5.696;2023-05-07T05:54:31;18.5;66.9
78461;SHT31;67755;51.986;5.696;2023-05-07T05:57:01;18.5;67.3
78461;SHT31;67755;51.986;5.696;2023-05-07T05:59:31;18.5;67.2
78461;SHT31;67755;51.986;5.696;2023-05-07T06:02:01;18.5;67.3
78461;SHT31;67755;51.986;5.696;2023-05-07T06:04:31;18.5;67.1
78461;SHT31;67755;51.986;5.696;2023-05-07T06:07:00;18.5;67.2
78461;SHT31;67755;51.986;5.696;2023-05-07T06:09:30;18.6;67.1
78461;SHT31;67755;51.986;5.696;2023-05-07T06:11:59;18.6;67.2
78461;SHT31;67755;51.986;5.696;2023-05-07T06:14:29;18.6;67.0
78461;SHT31;67755;51.986;5.696;2023-05-07T06:16:59;18.6;67.4
78461;SHT31;67755;51.986;5.696;2023-05-07T06:19:28;18.6;67.0
78461;SHT31;67755;51.986;5.696;2023-05-07T06:21:58;18.6;67.3
78461;SHT31;67755;51.986;5.696;2023-05-07T06:24:28;18.6;67.2
78461;SHT31;67755;51.986;5.696;2023-05-07T06:26:58;18.6;66.8
78461;SHT31;67755;51.986;5.696;2023-05-07T06:29:30;18.6;67.1
78461;SHT31;67755;51.986;5.696;2023-05-07T06:32:08;18.7;67.3
78461;SHT31;67755;51.986;5.696;2023-05-07T06:34:38;18.7;67.3
78461;SHT31;67755;51.986;5.696;2023-05-07T06:37:08;18.7;68.0
78461;SHT31;67755;51.986;5.696;2023-05-07T06:39:40;18.7;68.0
78461;SHT31;67755;51.986;5.696;2023-05-07T06:42:09;18.7;67.7
78461;SHT31;67755;51.986;5.696;2023-05-07T06:44:39;18.8;67.2
78461;SHT31;67755;51.986;5.696;2023-05-07T06:47:09;18.8;67.2
78461;SHT31;67755;51.986;5.696;2023-05-07T06:49:39;18.8;67.0
78461;SHT31;67755;51.986;5.696;2023-05-07T06:52:08;18.8;67.2
78461;SHT31;67755;51.986;5.696;2023-05-07T06:54:38;18.8;67.4
78461;SHT31;67755;51.986;5.696;2023-05-07T06:57:08;18.9;67.4
78461;SHT31;67755;51.986;5.696;2023-05-07T06:59:37;18.9;67.5
78461;SHT31;67755;51.986;5.696;2023-05-07T07:02:09;18.9;67.0
78461;SHT31;67755;51.986;5.696;2023-05-07T07:04:38;18.9;67.3
78461;SHT31;67755;51.986;5.696;2023-05-07T07:07:09;19.0;67.1
78461;SHT31;67755;51.986;5.696;2023-05-07T07:09:38;19.0;67.1
78461;SHT31;67755;51.986;5.696;2023-05-07T07:12:08;19.0;67.3
78461;SHT31;67755;51.986;5.696;2023-05-07T07:14:38;19.0;66.7
78461;SHT31;67755;51.986;5.696;2023-05-07T07:17:07;19.0;66.7
78461;SHT31;67755;51.986;5.696;2023-05-07T07:19:37;19.0;67.1
78461;SHT31;67755;51.986;5.696;2023-05-07T07:22:08;19.1;67.7
78461;SHT31;67755;51.986;5.696;2023-05-07T07:24:38;19.1;68.0
78461;SHT31;67755;51.986;5.696;2023-05-07T07:27:08;19.1;67.1
78461;SHT31;67755;51.986;5.696;2023-05-07T07:29:37;19.1;66.3
78461;SHT31;67755;51.986;5.696;2023-05-07T07:32:07;19.2;67.2
78461;SHT31;67755;51.986;5.696;2023-05-07T07:34:37;19.2;66.8
78461;SHT31;67755;51.986;5.696;2023-05-07T07:37:06;19.2;67.9
78461;SHT31;67755;51.986;5.696;2023-05-07T07:39:36;19.2;67.5
78461;SHT31;67755;51.986;5.696;2023-05-07T07:42:06;19.3;67.3
78461;SHT31;67755;51.986;5.696;2023-05-07T07:44:36;19.3;68.1
78461;SHT31;67755;51.986;5.696;2023-05-07T07:47:07;19.3;68.5
78461;SHT31;67755;51.986;5.696;2023-05-07T07:49:36;19.4;67.9
78461;SHT31;67755;51.986;5.696;2023-05-07T07:52:06;19.4;68.3
78461;SHT31;67755;51.986;5.696;2023-05-07T07:54:35;19.4;69.1
78461;SHT31;67755;51.986;5.696;2023-05-07T07:57:05;19.5;68.0
78461;SHT31;67755;51.986;5.696;2023-05-07T07:59:35;19.5;68.5
78461;SHT31;67755;51.986;5.696;2023-05-07T08:02:04;19.5;68.5
78461;SHT31;67755;51.986;5.696;2023-05-07T08:04:34;19.6;67.2
78461;SHT31;67755;51.986;5.696;2023-05-07T08:07:04;19.6;67.1
78461;SHT31;67755;51.986;5.696;2023-05-07T08:09:34;19.6;67.6
78461;SHT31;67755;51.986;5.696;2023-05-07T08:12:04;19.6;67.7
78461;SHT31;67755;51.986;5.696;2023-05-07T08:14:34;19.7;66.9
78461;SHT31;67755;51.986;5.696;2023-05-07T08:17:05;19.7;66.8
78461;SHT31;67755;51.986;5.696;2023-05-07T08:19:34;19.7;66.9
78461;SHT31;67755;51.986;5.696;2023-05-07T08:22:04;19.7;67.3
78461;SHT31;67755;51.986;5.696;2023-05-07T08:24:34;19.8;67.8
78461;SHT31;67755;51.986;5.696;2023-05-07T08:27:04;19.8;67.0
78461;SHT31;67755;51.986;5.696;2023-05-07T08:29:33;19.8;67.4
78461;SHT31;67755;51.986;5.696;2023-05-07T08:32:03;19.9;66.8
78461;SHT31;67755;51.986;5.696;2023-05-07T08:34:33;19.9;67.3
78461;SHT31;67755;51.986;5.696;2023-05-07T08:37:02;19.9;67.2
78461;SHT31;67755;51.986;5.696;2023-05-07T08:39:32;19.9;68.2
78461;SHT31;67755;51.986;5.696;2023-05-07T08:42:06;20.0;67.1
78461;SHT31;67755;51.986;5.696;2023-05-07T08:44:38;20.0;65.9
78461;SHT31;67755;51.986;5.696;2023-05-07T08:47:09;20.0;66.8
78461;SHT31;67755;51.986;5.696;2023-05-07T08:49:39;20.1;65.6
78461;SHT31;67755;51.986;5.696;2023-05-07T08:52:09;20.1;65.1
78461;SHT31;67755;51.986;5.696;2023-05-07T08:54:42;20.1;65.3
78461;SHT31;67755;51.986;5.696;2023-05-07T08:57:12;20.1;65.2
78461;SHT31;67755;51.986;5.696;2023-05-07T08:59:42;20.2;65.3
78461;SHT31;67755;51.986;5.696;2023-05-07T09:02:12;20.2;66.4
78461;SHT31;67755;51.986;5.696;2023-05-07T09:04:44;20.2;65.9
78461;SHT31;67755;51.986;5.696;2023-05-07T09:07:14;20.3;66.2
78461;SHT31;67755;51.986;5.696;2023-05-07T09:09:44;20.3;65.0
78461;SHT31;67755;51.986;5.696;2023-05-07T09:12:14;20.4;65.3
78461;SHT31;67755;51.986;5.696;2023-05-07T09:14:43;20.4;67.0
78461;SHT31;67755;51.986;5.696;2023-05-07T09:17:15;20.4;66.4
78461;SHT31;67755;51.986;5.696;2023-05-07T09:19:45;20.5;67.3
78461;SHT31;67755;51.986;5.696;2023-05-07T09:22:15;20.5;64.4
78461;SHT31;67755;51.986;5.696;2023-05-07T09:24:49;20.6;65.4
78461;SHT31;67755;51.986;5.696;2023-05-07T09:27:18;20.7;65.2
78461;SHT31;67755;51.986;5.696;2023-05-07T09:29:48;20.7;64.4
78461;SHT31;67755;51.986;5.696;2023-05-07T09:32:20;20.8;63.8
78461;SHT31;67755;51.986;5.696;2023-05-07T09:34:49;20.9;64.5
78461;SHT31;67755;51.986;5.696;2023-05-07T09:37:19;20.9;64.1
78461;SHT31;67755;51.986;5.696;2023-05-07T09:39:49;21.0;62.5
78461;SHT31;67755;51.986;5.696;2023-05-07T09:42:22;21.1;64.3
78461;SHT31;67755;51.986;5.696;2023-05-07T09:44:54;21.1;64.6
78461;SHT31;67755;51.986;5.696;2023-05-07T09:47:24;21.2;64.3
78461;SHT31;67755;51.986;5.696;2023-05-07T09:49:56;21.3;61.2
78461;SHT31;67755;51.986;5.696;2023-05-07T09:52:28;21.3;63.2
78461;SHT31;67755;51.986;5.696;2023-05-07T09:55:02;21.4;63.9
78461;SHT31;67755;51.986;5.696;2023-05-07T09:57:34;21.4;60.9
78461;SHT31;67755;51.986;5.696;2023-05-07T10:00:05;21.5;63.4
78461;SHT31;67755;51.986;5.696;2023-05-07T10:02:36;21.5;60.5
78461;SHT31;67755;51.986;5.696;2023-05-07T10:05:09;21.6;60.0
78461;SHT31;67755;51.986;5.696;2023-05-07T10:07:39;21.6;60.8
78461;SHT31;67755;51.986;5.696;2023-05-07T10:10:10;21.6;60.7
78461;SHT31;67755;51.986;5.696;2023-05-07T10:12:40;21.7;59.1
78461;SHT31;67755;51.986;5.696;2023-05-07T10:15:12;21.7;59.0
78461;SHT31;67755;51.986;5.696;2023-05-07T10:17:41;21.7;60.6
78461;SHT31;67755;51.986;5.696;2023-05-07T10:20:11;21.7;59.2
78461;SHT31;67755;51.986;5.696;2023-05-07T10:22:44;21.8;59.5
78461;SHT31;67755;51.986;5.696;2023-05-07T10:25:19;21.8;57.4
78461;SHT31;67755;51.986;5.696;2023-05-07T10:27:52;21.8;61.6
78461;SHT31;67755;51.986;5.696;2023-05-07T10:30:30;21.8;58.4
78461;SHT31;67755;51.986;5.696;2023-05-07T10:33:04;21.9;60.0
78461;SHT31;67755;51.986;5.696;2023-05-07T10:35:39;21.9;62.7
78461;SHT31;67755;51.986;5.696;2023-05-07T10:38:10;22.0;57.5
78461;SHT31;67755;51.986;5.696;2023-05-07T10:40:40;22.0;56.1
78461;SHT31;67755;51.986;5.696;2023-05-07T10:43:10;22.0;58.8
78461;SHT31;67755;51.986;5.696;2023-05-07T10:45:40;22.1;56.6
78461;SHT31;67755;51.986;5.696;2023-05-07T10:48:14;22.1;58.2
78461;SHT31;67755;51.986;5.696;2023-05-07T10:50:45;22.1;56.4
78461;SHT31;67755;51.986;5.696;2023-05-07T10:53:25;22.2;56.5
78461;SHT31;67755;51.986;5.696;2023-05-07T10:59:36;22.3;56.9
78461;SHT31;67755;51.986;5.696;2023-05-07T11:02:11;22.3;55.7
78461;SHT31;67755;51.986;5.696;2023-05-07T11:04:44;22.4;54.8
78461;SHT31;67755;51.986;5.696;2023-05-07T11:07:25;22.4;55.3
78461;SHT31;67755;51.986;5.696;2023-05-07T11:10:03;22.5;55.7
78461;SHT31;67755;51.986;5.696;2023-05-07T11:12:52;22.5;54.7
78461;SHT31;67755;51.986;5.696;2023-05-07T11:15:42;22.5;56.8
78461;SHT31;67755;51.986;5.696;2023-05-07T11:18:16;22.6;57.0
78461;SHT31;67755;51.986;5.696;2023-05-07T11:20:51;22.7;58.0
78461;SHT31;67755;51.986;5.696;2023-05-07T11:24:08;22.7;57.9
78461;SHT31;67755;51.986;5.696;2023-05-07T11:26:49;22.8;57.1
78461;SHT31;67755;51.986;5.696;2023-05-07T11:29:20;22.8;58.2
78461;SHT31;67755;51.986;5.696;2023-05-07T11:31:52;22.9;57.8
78461;SHT31;67755;51.986;5.696;2023-05-07T11:34:24;22.9;56.9
78461;SHT31;67755;51.986;5.696;2023-05-07T11:36:54;22.9;57.0
78461;SHT31;67755;51.986;5.696;2023-05-07T11:39:25;23.0;55.6
78461;SHT31;67755;51.986;5.696;2023-05-07T11:41:55;23.0;56.4
78461;SHT31;67755;51.986;5.696;2023-05-07T11:44:25;23.1;55.3
78461;SHT31;67755;51.986;5.696;2023-05-07T11:47:00;23.1;55.2
78461;SHT31;67755;51.986;5.696;2023-05-07T11:49:30;23.1;56.0
78461;SHT31;67755;51.986;5.696;2023-05-07T11:51:59;23.1;55.9
78461;SHT31;67755;51.986;5.696;2023-05-07T11:54:34;23.2;55.6
78461;SHT31;67755;51.986;5.696;2023-05-07T11:57:04;23.2;54.7
78461;SHT31;67755;51.986;5.696;2023-05-07T11:59:40;23.2;56.1
78461;SHT31;67755;51.986;5.696;2023-05-07T12:02:13;23.2;55.0
78461;SHT31;67755;51.986;5.696;2023-05-07T12:04:43;23.3;54.5
78461;SHT31;67755;51.986;5.696;2023-05-07T12:07:14;23.3;55.5
78461;SHT31;67755;51.986;5.696;2023-05-07T12:09:44;23.3;56.3
78461;SHT31;67755;51.986;5.696;2023-05-07T12:12:14;23.3;57.4
78461;SHT31;67755;51.986;5.696;2023-05-07T12:14:47;23.3;55.3
78461;SHT31;67755;51.986;5.696;2023-05-07T12:17:17;23.4;53.9
78461;SHT31;67755;51.986;5.696;2023-05-07T12:19:47;23.4;58.2
78461;SHT31;67755;51.986;5.696;2023-05-07T12:22:18;23.4;53.3
78461;SHT31;67755;51.986;5.696;2023-05-07T12:24:49;23.5;53.7
78461;SHT31;67755;51.986;5.696;2023-05-07T12:27:19;23.5;53.3
78461;SHT31;67755;51.986;5.696;2023-05-07T12:29:49;23.6;55.8
78461;SHT31;67755;51.986;5.696;2023-05-07T12:32:21;23.6;53.2
78461;SHT31;67755;51.986;5.696;2023-05-07T12:34:53;23.7;52.9
78461;SHT31;67755;51.986;5.696;2023-05-07T12:37:25;23.7;53.8
78461;SHT31;67755;51.986;5.696;2023-05-07T12:40:07;23.7;52.4
78461;SHT31;67755;51.986;5.696;2023-05-07T12:42:39;23.8;52.1
78461;SHT31;67755;51.986;5.696;2023-05-07T12:45:11;23.9;53.3
78461;SHT31;67755;51.986;5.696;2023-05-07T12:47:45;23.9;53.2
78461;SHT31;67755;51.986;5.696;2023-05-07T12:50:16;24.0;54.2
78461;SHT31;67755;51.986;5.696;2023-05-07T12:52:47;24.1;52.5
78461;SHT31;67755;51.986;5.696;2023-05-07T12:55:19;24.2;50.9
78461;SHT31;67755;51.986;5.696;2023-05-07T12:57:50;24.2;54.1
78461;SHT31;67755;51.986;5.696;2023-05-07T13:00:37;24.3;51.8
78461;SHT31;67755;51.986;5.696;2023-05-07T13:03:06;24.4;50.1
78461;SHT31;67755;51.986;5.696;2023-05-07T13:05:36;24.4;50.4
78461;SHT31;67755;51.986;5.696;2023-05-07T13:08:06;24.5;50.0
78461;SHT31;67755;51.986;5.696;2023-05-07T13:10:37;24.5;51.3
78461;SHT31;67755;51.986;5.696;2023-05-07T13:13:06;24.6;48.0
78461;SHT31;67755;51.986;5.696;2023-05-07T13:15:36;24.6;48.7
78461;SHT31;67755;51.986;5.696;2023-05-07T13:18:06;24.6;48.9
78461;SHT31;67755;51.986;5.696;2023-05-07T13:20:37;24.6;49.5
78461;SHT31;67755;51.986;5.696;2023-05-07T13:23:08;24.6;51.5
78461;SHT31;67755;51.986;5.696;2023-05-07T13:25:37;24.6;48.3
78461;SHT31;67755;51.986;5.696;2023-05-07T13:28:07;24.6;50.0
78461;SHT31;67755;51.986;5.696;2023-05-07T13:30:37;24.6;51.7
78461;SHT31;67755;51.986;5.696;2023-05-07T13:33:08;24.6;49.9
78461;SHT31;67755;51.986;5.696;2023-05-07T13:35:38;24.6;47.2
78461;SHT31;67755;51.986;5.696;2023-05-07T13:38:07;24.6;49.2
78461;SHT31;67755;51.986;5.696;2023-05-07T13:40:37;24.7;47.9
78461;SHT31;67755;51.986;5.696;2023-05-07T13:43:08;24.7;47.7
78461;SHT31;67755;51.986;5.696;2023-05-07T13:45:38;24.7;48.6
78461;SHT31;67755;51.986;5.696;2023-05-07T13:48:08;24.7;47.8
78461;SHT31;67755;51.986;5.696;2023-05-07T13:50:37;24.8;47.3
78461;SHT31;67755;51.986;5.696;2023-05-07T13:53:08;24.8;47.0
78461;SHT31;67755;51.986;5.696;2023-05-07T13:55:38;24.8;47.5
78461;SHT31;67755;51.986;5.696;2023-05-07T13:58:07;24.8;46.4
78461;SHT31;67755;51.986;5.696;2023-05-07T14:00:37;24.8;45.8
78461;SHT31;67755;51.986;5.696;2023-05-07T14:03:07;24.8;46.6
78461;SHT31;67755;51.986;5.696;2023-05-07T14:05:37;24.8;46.2
78461;SHT31;67755;51.986;5.696;2023-05-07T14:08:08;24.8;47.5
78461;SHT31;67755;51.986;5.696;2023-05-07T14:10:42;24.8;47.7
78461;SHT31;67755;51.986;5.696;2023-05-07T14:13:12;24.9;49.4
78461;SHT31;67755;51.986;5.696;2023-05-07T14:15:41;24.9;51.4
78461;SHT31;67755;51.986;5.696;2023-05-07T14:18:14;24.9;50.1
78461;SHT31;67755;51.986;5.696;2023-05-07T14:20:45;24.9;49.4
78461;SHT31;67755;51.986;5.696;2023-05-07T14:23:16;24.9;50.3
78461;SHT31;67755;51.986;5.696;2023-05-07T14:25:47;24.9;49.6
78461;SHT31;67755;51.986;5.696;2023-05-07T14:28:16;24.9;49.7
78461;SHT31;67755;51.986;5.696;2023-05-07T14:30:46;24.9;49.5
78461;SHT31;67755;51.986;5.696;2023-05-07T14:33:17;24.9;48.7
78461;SHT31;67755;51.986;5.696;2023-05-07T14:35:46;24.9;49.0
78461;SHT31;67755;51.986;5.696;2023-05-07T14:38:17;24.9;50.3
78461;SHT31;67755;51.986;5.696;2023-05-07T14:40:49;24.9;50.6
78461;SHT31;67755;51.986;5.696;2023-05-07T14:43:19;24.8;49.5
78461;SHT31;67755;51.986;5.696;2023-05-07T14:45:49;24.8;49.4
78461;SHT31;67755;51.986;5.696;2023-05-07T14:48:18;24.8;49.2
78461;SHT31;67755;51.986;5.696;2023-05-07T14:50:48;24.8;50.2
78461;SHT31;67755;51.986;5.696;2023-05-07T14:53:18;24.8;51.4
78461;SHT31;67755;51.986;5.696;2023-05-07T14:55:48;24.8;50.4
78461;SHT31;67755;51.986;5.696;2023-05-07T14:58:18;24.8;50.0
78461;SHT31;67755;51.986;5.696;2023-05-07T15:00:48;24.7;50.9
78461;SHT31;67755;51.986;5.696;2023-05-07T15:03:17;24.7;49.5
78461;SHT31;67755;51.986;5.696;2023-05-07T15:05:47;24.7;48.9
78461;SHT31;67755;51.986;5.696;2023-05-07T15:08:18;24.7;50.6
78461;SHT31;67755;51.986;5.696;2023-05-07T15:10:48;24.7;49.5
78461;SHT31;67755;51.986;5.696;2023-05-07T15:13:18;24.7;49.5
78461;SHT31;67755;51.986;5.696;2023-05-07T15:15:48;24.7;51.4
78461;SHT31;67755;51.986;5.696;2023-05-07T15:18:18;24.6;51.6
78461;SHT31;67755;51.986;5.696;2023-05-07T15:20:50;24.6;51.0
78461;SHT31;67755;51.986;5.696;2023-05-07T15:23:21;24.6;50.4
78461;SHT31;67755;51.986;5.696;2023-05-07T15:25:51;24.6;48.0
78461;SHT31;67755;51.986;5.696;2023-05-07T15:28:22;24.5;47.7
78461;SHT31;67755;51.986;5.696;2023-05-07T15:30:52;24.5;47.5
78461;SHT31;67755;51.986;5.696;2023-05-07T15:33:21;24.4;47.5
78461;SHT31;67755;51.986;5.696;2023-05-07T15:35:51;24.3;47.6
78461;SHT31;67755;51.986;5.696;2023-05-07T15:38:20;24.2;48.1
78461;SHT31;67755;51.986;5.696;2023-05-07T15:40:50;24.1;48.3
78461;SHT31;67755;51.986;5.696;2023-05-07T15:43:20;24.0;47.9
78461;SHT31;67755;51.986;5.696;2023-05-07T15:45:50;23.9;48.1
78461;SHT31;67755;51.986;5.696;2023-05-07T15:48:22;23.8;49.0
78461;SHT31;67755;51.986;5.696;2023-05-07T15:50:53;23.7;50.7
78461;SHT31;67755;51.986;5.696;2023-05-07T15:53:23;23.6;51.8
78461;SHT31;67755;51.986;5.696;2023-05-07T15:55:53;23.5;52.8
78461;SHT31;67755;51.986;5.696;2023-05-07T15:58:22;23.4;52.9
78461;SHT31;67755;51.986;5.696;2023-05-07T16:00:52;23.3;53.1
78461;SHT31;67755;51.986;5.696;2023-05-07T16:03:22;23.2;54.2
78461;SHT31;67755;51.986;5.696;2023-05-07T16:05:53;23.1;55.1
78461;SHT31;67755;51.986;5.696;2023-05-07T16:08:24;23.0;55.8
78461;SHT31;67755;51.986;5.696;2023-05-07T16:10:54;23.0;56.2
78461;SHT31;67755;51.986;5.696;2023-05-07T16:13:26;22.9;56.2
78461;SHT31;67755;51.986;5.696;2023-05-07T16:15:57;22.8;56.5
78461;SHT31;67755;51.986;5.696;2023-05-07T16:18:27;22.8;56.6
78461;SHT31;67755;51.986;5.696;2023-05-07T16:20:57;22.7;57.0
78461;SHT31;67755;51.986;5.696;2023-05-07T16:23:27;22.7;56.7
78461;SHT31;67755;51.986;5.696;2023-05-07T16:25:57;22.6;56.6
78461;SHT31;67755;51.986;5.696;2023-05-07T16:28:27;22.6;57.1